createdAt,value
2017-10-17T00:41:34.215Z,16.80
2017-10-17T00:46:32.233Z,16.80
2017-10-17T00:48:59.921Z,16.80
2017-10-17T00:51:30.412Z,16.70
2017-10-17T00:53:59.041Z,16.60
2017-10-17T01:11:22.833Z,16.20
2017-10-17T01:13:50.534Z,16.40
2017-10-17T01:16:18.219Z,16.40
2017-10-17T08:39:47.048Z,16.50
2017-10-17T08:42:15.441Z,16.60
2017-10-17T08:44:44.601Z,17.00
2017-10-17T08:47:12.993Z,17.00
2017-10-17T08:49:41.204Z,17.20
2017-10-17T08:52:10.169Z,17.60
2017-10-17T08:54:38.395Z,17.60
2017-10-17T08:57:06.588Z,17.60
2017-10-17T08:59:34.889Z,17.40
2017-10-17T09:02:03.273Z,17.60
2017-10-17T09:04:31.659Z,17.90
2017-10-17T09:07:00.822Z,18.20
2017-10-17T09:09:29.202Z,18.20
2017-10-17T09:11:57.405Z,18.40
2017-10-17T09:14:25.601Z,18.50
2017-10-17T09:16:54.761Z,18.50
2017-10-17T09:19:23.151Z,18.40
2017-10-17T09:21:52.313Z,18.60
2017-10-17T09:24:20.709Z,18.60
2017-10-17T09:26:49.090Z,18.70
2017-10-17T09:29:17.467Z,18.70
2017-10-17T09:31:45.863Z,18.80
2017-10-17T09:34:14.238Z,18.90
2017-10-17T09:36:42.662Z,19.00
2017-10-17T09:39:11.092Z,19.00
2017-10-17T09:41:39.466Z,18.80
2017-10-17T09:44:07.900Z,18.70
2017-10-17T09:46:36.289Z,18.90
2017-10-17T09:49:04.666Z,19.00
2017-10-17T09:51:33.077Z,19.10
2017-10-17T09:54:01.279Z,19.10
2017-10-17T09:56:30.266Z,19.00
2017-10-17T09:58:59.413Z,19.10
2017-10-17T10:01:27.622Z,19.10
2017-10-17T10:03:56.006Z,19.10
2017-10-17T10:06:24.196Z,19.10
2017-10-17T10:08:53.349Z,19.10
2017-10-17T10:11:21.739Z,19.10
2017-10-17T10:13:50.133Z,18.80
2017-10-17T10:16:18.575Z,19.20
2017-10-17T10:18:46.790Z,19.40
2017-10-17T10:21:15.940Z,19.70
2017-10-17T10:23:45.345Z,19.80
2017-10-17T10:26:13.785Z,19.70
2017-10-17T10:28:42.937Z,20.00
2017-10-17T10:31:11.322Z,20.00
2017-10-17T10:33:39.693Z,20.10
2017-10-17T10:36:08.093Z,20.10
2017-10-17T10:38:37.259Z,20.20
2017-10-17T10:41:05.638Z,20.10
2017-10-17T10:43:34.030Z,20.30
2017-10-17T10:46:02.447Z,20.50
2017-10-17T10:48:31.601Z,19.50
2017-10-17T10:51:00.004Z,19.50
2017-10-17T10:53:29.177Z,18.50
2017-10-17T10:55:57.563Z,18.50
2017-10-17T10:58:25.951Z,18.10
2017-10-17T11:00:54.149Z,17.90
2017-10-17T11:03:23.292Z,17.60
2017-10-17T11:05:51.688Z,17.60
2017-10-17T11:08:20.070Z,17.60
2017-10-17T11:10:48.473Z,17.50
2017-10-17T11:13:17.621Z,18.10
2017-10-17T11:15:45.998Z,18.10
2017-10-17T11:18:14.408Z,18.90
2017-10-17T11:20:43.565Z,18.90
2017-10-17T11:23:11.959Z,18.90
2017-10-17T11:25:40.621Z,18.50
2017-10-17T11:28:09.029Z,18.40
2017-10-17T11:30:37.217Z,18.60
2017-10-17T11:33:05.602Z,18.50
2017-10-17T11:35:33.994Z,18.50
2017-10-17T11:38:03.154Z,18.10
2017-10-17T11:40:42.626Z,18.10
2017-10-17T11:43:23.116Z,19.00
2017-10-17T11:45:51.509Z,19.00
2017-10-17T11:48:19.920Z,20.00
2017-10-17T11:50:48.131Z,20.80
2017-10-17T11:53:16.512Z,21.40
2017-10-17T11:55:44.938Z,21.60
2017-10-17T11:58:13.333Z,21.70
2017-10-17T12:00:41.374Z,20.30
2017-10-17T12:03:09.778Z,19.50
2017-10-17T12:05:38.158Z,18.70
2017-10-17T12:08:06.552Z,18.50
2017-10-17T12:10:35.380Z,19.00
2017-10-17T12:13:03.069Z,19.00
2017-10-17T12:15:30.922Z,19.10
2017-10-17T12:17:59.308Z,18.90
2017-10-17T12:20:27.709Z,18.80
2017-10-17T12:22:55.741Z,18.90
2017-10-17T12:25:24.143Z,18.70
2017-10-17T12:27:52.536Z,18.60
2017-10-17T12:30:20.913Z,18.70
2017-10-17T12:32:49.334Z,18.70
2017-10-17T12:35:17.705Z,19.30
2017-10-17T12:37:46.094Z,19.20
2017-10-17T12:40:14.472Z,18.90
2017-10-17T12:42:42.874Z,18.80
2017-10-17T12:45:11.255Z,18.80
2017-10-17T12:47:39.633Z,18.90
2017-10-17T12:50:07.834Z,19.00
2017-10-17T12:52:36.024Z,19.00
2017-10-17T12:55:04.991Z,18.80
2017-10-17T12:57:33.183Z,18.80
2017-10-17T13:00:01.421Z,18.80
2017-10-17T13:02:30.390Z,18.70
2017-10-17T13:04:58.606Z,18.70
2017-10-17T13:07:26.461Z,18.70
2017-10-17T13:09:54.490Z,19.00
2017-10-17T13:12:22.890Z,19.30
2017-10-17T13:14:51.274Z,19.40
2017-10-17T13:17:19.320Z,18.80
2017-10-17T13:19:47.370Z,18.80
2017-10-17T13:22:16.508Z,18.40
2017-10-17T13:24:44.897Z,18.40
2017-10-17T13:27:13.279Z,18.40
2017-10-17T13:29:41.663Z,18.30
2017-10-17T13:32:10.048Z,18.40
2017-10-17T13:34:38.452Z,19.00
2017-10-17T13:37:07.411Z,19.10
2017-10-17T13:39:35.598Z,19.00
2017-10-17T13:42:03.999Z,19.30
2017-10-17T13:44:33.149Z,19.80
2017-10-17T13:47:01.363Z,19.80
2017-10-17T13:49:30.510Z,19.10
2017-10-17T13:51:58.914Z,19.10
2017-10-17T13:54:27.286Z,19.40
2017-10-17T13:56:55.678Z,19.00
2017-10-17T13:59:24.073Z,19.00
2017-10-17T14:01:53.221Z,19.80
2017-10-17T14:04:21.618Z,19.80
2017-10-17T14:06:50.021Z,19.40
2017-10-17T14:09:19.256Z,18.90
2017-10-17T14:11:47.738Z,18.90
2017-10-17T14:14:16.192Z,18.70
2017-10-17T14:16:45.395Z,18.70
2017-10-17T14:19:13.843Z,18.70
2017-10-17T14:21:42.239Z,19.10
2017-10-17T14:24:11.429Z,19.60
2017-10-17T14:26:39.855Z,19.70
2017-10-17T14:29:08.232Z,19.70
2017-10-17T14:31:36.625Z,19.60
2017-10-17T14:34:05.048Z,19.00
2017-10-17T14:36:34.205Z,18.50
2017-10-17T14:39:02.603Z,18.50
2017-10-17T14:41:31.015Z,19.00
2017-10-17T14:43:59.474Z,19.30
2017-10-17T14:46:28.657Z,19.00
2017-10-17T14:48:57.076Z,19.00
2017-10-17T14:51:25.325Z,19.30
2017-10-17T14:53:54.333Z,19.30
2017-10-17T14:56:23.496Z,19.00
2017-10-17T14:58:51.908Z,19.00
2017-10-17T15:01:21.078Z,18.60
2017-10-17T15:03:49.475Z,18.50
2017-10-17T15:06:18.635Z,18.70
2017-10-17T15:08:47.034Z,18.70
2017-10-17T15:11:15.430Z,18.70
2017-10-17T15:13:44.579Z,18.80
2017-10-17T15:16:12.790Z,18.80
2017-10-17T15:18:41.166Z,18.60
2017-10-17T15:21:09.564Z,18.30
2017-10-17T15:23:37.957Z,18.20
2017-10-17T15:26:07.043Z,18.40
2017-10-17T15:28:35.682Z,18.40
2017-10-17T15:31:04.058Z,18.50
2017-10-17T15:33:32.447Z,18.50
2017-10-17T15:36:00.862Z,18.40
2017-10-17T15:38:29.279Z,18.40
2017-10-17T15:40:57.710Z,18.30
2017-10-17T15:43:26.865Z,18.30
2017-10-17T15:45:55.264Z,18.30
2017-10-17T15:48:23.653Z,18.20
2017-10-17T15:50:52.805Z,18.20
2017-10-17T15:53:21.194Z,18.20
2017-10-17T15:55:49.588Z,18.30
2017-10-17T15:58:17.978Z,18.20
2017-10-17T16:00:46.378Z,18.20
2017-10-17T16:03:14.765Z,18.10
2017-10-17T16:05:43.178Z,18.00
2017-10-17T16:08:11.567Z,18.00
2017-10-17T16:10:41.090Z,18.20
2017-10-17T16:13:09.481Z,18.20
2017-10-17T16:15:38.651Z,17.90
2017-10-17T16:18:07.053Z,17.90
2017-10-17T16:20:36.197Z,17.90
2017-10-17T16:23:03.905Z,17.90
2017-10-17T16:25:32.371Z,17.90
2017-10-17T16:28:01.103Z,17.80
2017-10-17T16:30:29.604Z,17.70
2017-10-17T16:32:57.982Z,17.60
2017-10-17T16:35:26.386Z,17.40
2017-10-17T16:37:54.623Z,17.10
2017-10-17T16:40:23.266Z,16.80
2017-10-17T16:42:51.667Z,16.50
2017-10-17T16:45:21.204Z,16.30
